createdAt,value
2022-08-05T00:00:50.626Z,100342.28
2022-08-05T00:03:52.556Z,100341.38
2022-08-05T00:06:54.417Z,100341.09
2022-08-05T00:09:57.681Z,100331.66
2022-08-05T00:13:00.445Z,100330.12
2022-08-05T00:16:02.533Z,100343.47
2022-08-05T00:19:04.413Z,100339.91
2022-08-05T00:22:06.370Z,100336.41
2022-08-05T00:25:08.453Z,100336.22
2022-08-05T00:28:15.117Z,100342.28
2022-08-05T00:31:54.113Z,100332.44
2022-08-05T00:35:04.095Z,100330.03
2022-08-05T00:38:09.461Z,100331.50
2022-08-05T00:41:11.708Z,100332.84
2022-08-05T00:44:13.950Z,100334.19
2022-08-05T00:47:16.381Z,100322.00
2022-08-05T00:50:18.461Z,100334.00
2022-08-05T00:53:45.017Z,100326.06
2022-08-05T00:56:51.554Z,100335.16
2022-08-05T00:59:53.736Z,100324.91
2022-08-05T01:02:56.350Z,100320.72
2022-08-05T01:05:58.179Z,100327.78
2022-08-05T01:09:00.631Z,100322.22
2022-08-05T01:12:18.838Z,100322.31
2022-08-05T01:15:36.525Z,100327.25
2022-08-05T01:18:41.169Z,100306.72
2022-08-05T01:21:50.696Z,100324.66
2022-08-05T01:24:52.689Z,100326.16
2022-08-05T01:28:04.888Z,100306.78
2022-08-05T01:31:22.865Z,100327.94
2022-08-05T01:34:31.572Z,100322.16
2022-08-05T01:37:44.383Z,100330.00
2022-08-05T01:40:46.439Z,100322.97
2022-08-05T01:43:51.174Z,100330.34
2022-08-05T01:46:54.014Z,100326.41
2022-08-05T01:50:01.721Z,100325.22
2022-08-05T01:53:05.379Z,100329.28
2022-08-05T01:56:09.799Z,100326.22
2022-08-05T01:59:12.521Z,100327.50
2022-08-05T02:02:16.495Z,100327.81
2022-08-05T02:05:18.936Z,100325.81
2022-08-05T02:08:30.787Z,100329.81
2022-08-05T02:11:42.117Z,100326.19
2022-08-05T02:14:57.878Z,100334.72
2022-08-05T02:18:31.092Z,100333.34
2022-08-05T02:21:29.085Z,100339.59
2022-08-05T02:24:41.023Z,100339.50
2022-08-05T02:27:58.964Z,100338.72
2022-08-05T02:31:07.526Z,100334.41
2022-08-05T02:34:11.807Z,100331.25
2022-08-05T02:37:13.934Z,100329.88
2022-08-05T02:40:19.149Z,100326.62
2022-08-05T02:43:21.005Z,100322.81
2022-08-05T02:46:27.700Z,100315.59
2022-08-05T02:49:41.904Z,100323.31
2022-08-05T02:52:45.191Z,100328.00
2022-08-05T02:55:55.315Z,100328.72
2022-08-05T02:59:02.312Z,100314.72
2022-08-05T03:02:04.455Z,100313.94
2022-08-05T03:05:07.895Z,100317.31
2022-08-05T03:08:10.759Z,100322.16
2022-08-05T03:11:54.822Z,100320.91
2022-08-05T03:14:46.050Z,100322.72
2022-08-05T03:17:48.113Z,100315.41
2022-08-05T03:20:56.157Z,100308.34
2022-08-05T03:23:59.700Z,100309.62
2022-08-05T03:27:01.531Z,100312.84
2022-08-05T03:30:08.585Z,100307.81
2022-08-05T03:33:10.969Z,100311.28
2022-08-05T03:36:12.835Z,100305.69
2022-08-05T03:39:20.030Z,100312.06
2022-08-05T03:42:32.187Z,100308.47
2022-08-05T03:45:58.099Z,100310.66
2022-08-05T03:48:56.568Z,100313.25
2022-08-05T03:52:37.633Z,100316.06
2022-08-05T03:56:04.277Z,100314.53
2022-08-05T03:58:47.576Z,100312.69
2022-08-05T04:01:53.442Z,100322.37
2022-08-05T04:05:01.062Z,100317.41
2022-08-05T04:08:05.475Z,100325.22
2022-08-05T04:11:08.547Z,100324.97
2022-08-05T04:14:11.741Z,100319.59
2022-08-05T04:17:20.163Z,100323.38
2022-08-05T04:20:23.199Z,100325.47
2022-08-05T04:24:05.643Z,100319.97
2022-08-05T04:26:47.599Z,100323.12
2022-08-05T04:29:49.445Z,100318.47
2022-08-05T04:32:51.427Z,100315.97
2022-08-05T04:36:10.667Z,100310.72
2022-08-05T04:39:15.233Z,100323.44
2022-08-05T04:42:17.222Z,100314.22
2022-08-05T04:45:22.946Z,100324.00
2022-08-05T04:48:40.918Z,100315.91
2022-08-05T04:51:44.228Z,100310.88
2022-08-05T04:54:46.132Z,100314.06
2022-08-05T04:57:54.429Z,100316.00
2022-08-05T05:00:56.420Z,100312.88
2022-08-05T05:03:58.338Z,100321.66
2022-08-05T05:07:01.538Z,100310.09
2022-08-05T05:10:05.454Z,100310.16
2022-08-05T05:13:15.927Z,100305.78
2022-08-05T05:16:19.769Z,100307.94
2022-08-05T05:19:23.571Z,100301.97
2022-08-05T05:22:29.137Z,100310.78
2022-08-05T05:25:32.962Z,100302.88
2022-08-05T05:28:45.001Z,100303.34
2022-08-05T05:31:47.148Z,100298.25
2022-08-05T05:34:49.122Z,100294.66
2022-08-05T05:37:59.365Z,100297.91
2022-08-05T05:41:02.351Z,100285.78
2022-08-05T05:44:04.344Z,100284.00
2022-08-05T05:47:30.119Z,100273.28
2022-08-05T05:50:32.951Z,100295.47
2022-08-05T05:53:46.104Z,100297.84
2022-08-05T05:56:58.410Z,100285.84
2022-08-05T06:00:00.257Z,100293.44
2022-08-05T06:03:03.497Z,100283.16
2022-08-05T06:06:27.981Z,100293.00
2022-08-05T06:09:52.666Z,100275.13
2022-08-05T06:12:55.138Z,100285.56
2022-08-05T06:16:30.598Z,100284.00
2022-08-05T06:19:33.954Z,100281.91
2022-08-05T06:22:37.062Z,100289.81
2022-08-05T06:26:12.683Z,100285.81
2022-08-05T06:29:24.979Z,100290.69
2022-08-05T06:32:29.181Z,100283.03
2022-08-05T06:36:03.813Z,100271.56
2022-08-05T06:38:54.732Z,100290.41
2022-08-05T06:41:59.306Z,100285.59
2022-08-05T06:45:05.571Z,100292.34
2022-08-05T06:48:36.518Z,100285.84
2022-08-05T06:51:32.440Z,100283.56
2022-08-05T06:54:34.439Z,100278.41
2022-08-05T06:57:57.533Z,100281.63
2022-08-05T07:01:00.370Z,100290.78
2022-08-05T07:04:03.169Z,100285.59
2022-08-05T07:07:07.862Z,100277.69
2022-08-05T07:10:10.177Z,100275.13
2022-08-05T07:13:56.970Z,100275.78
2022-08-05T07:17:58.540Z,100276.06
2022-08-05T07:20:39.061Z,100278.06
2022-08-05T07:23:49.831Z,100274.34
2022-08-05T07:26:54.152Z,100270.72
2022-08-05T07:30:22.045Z,100270.78
2022-08-05T07:33:36.763Z,100260.63
2022-08-05T07:36:39.595Z,100261.81
2022-08-05T07:40:26.179Z,100255.94
2022-08-05T07:43:07.378Z,100264.69
2022-08-05T07:46:25.557Z,100242.56
2022-08-05T07:49:27.851Z,100260.38
2022-08-05T07:52:30.567Z,100255.62
2022-08-05T07:55:44.300Z,100255.72
2022-08-05T07:58:59.281Z,100257.63
2022-08-05T08:02:03.201Z,100247.53
2022-08-05T08:05:05.531Z,100243.22
2022-08-05T08:08:07.411Z,100251.13
2022-08-05T08:11:16.072Z,100255.47
2022-08-05T08:14:19.007Z,100257.59
2022-08-05T08:17:21.711Z,100244.63
2022-08-05T08:20:59.805Z,100241.72
2022-08-05T08:24:01.353Z,100238.47
2022-08-05T08:27:06.924Z,100239.63
2022-08-05T08:30:29.613Z,100244.72
2022-08-05T08:33:37.842Z,100239.81
2022-08-05T08:36:47.717Z,100242.12
2022-08-05T08:39:56.939Z,100250.47
2022-08-05T08:45:16.283Z,100238.69
2022-08-05T08:46:21.020Z,100245.31
2022-08-05T08:50:23.197Z,100235.44
2022-08-05T08:52:51.847Z,100236.50
2022-08-05T08:56:02.630Z,100233.31
2022-08-05T08:59:14.911Z,100241.34
2022-08-05T09:02:22.021Z,100233.31
2022-08-05T09:05:38.837Z,100230.50
2022-08-05T09:08:50.414Z,100234.59
2022-08-05T09:11:55.298Z,100220.34
2022-08-05T09:15:06.614Z,100228.19
2022-08-05T09:18:09.472Z,100209.72
2022-08-05T09:21:20.497Z,100218.41
2022-08-05T09:24:24.182Z,100219.94
2022-08-05T09:28:04.536Z,100208.25
2022-08-05T09:30:56.693Z,100197.28
2022-08-05T09:34:03.023Z,100211.22
2022-08-05T09:37:04.948Z,100193.56
2022-08-05T09:40:53.619Z,100196.03
2022-08-05T09:43:55.937Z,100183.22
2022-08-05T09:47:15.426Z,100186.63
2022-08-05T09:50:38.790Z,100193.22
2022-08-05T09:53:54.327Z,100187.13
2022-08-05T09:57:01.181Z,100188.00
2022-08-05T10:00:18.431Z,100174.38
2022-08-05T10:03:21.637Z,100172.81
2022-08-05T10:06:23.532Z,100174.25
2022-08-05T10:09:29.301Z,100162.19
2022-08-05T10:12:34.042Z,100168.16
2022-08-05T10:15:36.994Z,100168.19
2022-08-05T10:18:44.337Z,100158.34
2022-08-05T10:21:50.477Z,100156.06
2022-08-05T10:24:52.858Z,100150.97
2022-08-05T10:28:09.341Z,100148.75
2022-08-05T10:32:48.445Z,100148.53
2022-08-05T10:34:37.464Z,100142.69
2022-08-05T10:37:44.886Z,100138.13
2022-08-05T10:40:58.171Z,100135.75
2022-08-05T10:44:05.943Z,100129.69
2022-08-05T10:47:25.919Z,100134.81
2022-08-05T10:50:36.298Z,100138.25
2022-08-05T10:53:55.596Z,100137.47
2022-08-05T10:56:57.571Z,100134.28
2022-08-05T11:00:20.742Z,100140.03
2022-08-05T11:03:27.114Z,100131.00
2022-08-05T11:06:30.753Z,100133.88
2022-08-05T11:10:03.742Z,100118.31
2022-08-05T11:13:22.006Z,100118.66
2022-08-05T11:16:33.926Z,100110.84
2022-08-05T11:20:10.048Z,100104.16
2022-08-05T11:24:02.244Z,100104.84
2022-08-05T11:26:51.234Z,100100.97
2022-08-05T11:29:59.462Z,100113.31
2022-08-05T11:33:21.477Z,100099.56
2022-08-05T11:36:42.027Z,100104.63
2022-08-05T11:39:50.327Z,100097.25
2022-08-05T11:43:02.824Z,100090.22
2022-08-05T11:46:15.671Z,100077.25
2022-08-05T11:49:27.039Z,100089.28
2022-08-05T11:52:31.035Z,100091.69
2022-08-05T11:55:36.451Z,100094.56
2022-08-05T11:58:42.639Z,100098.78
2022-08-05T12:02:23.957Z,100090.38
2022-08-05T12:05:36.223Z,100094.97
2022-08-05T12:08:47.941Z,100089.34
2022-08-05T12:11:53.549Z,100079.50
2022-08-05T12:14:55.651Z,100070.91
2022-08-05T12:18:10.071Z,100093.00
2022-08-05T12:21:24.020Z,100086.53
2022-08-05T12:24:26.183Z,100082.81
2022-08-05T12:27:32.840Z,100078.25
2022-08-05T12:30:37.611Z,100078.69
2022-08-05T12:33:48.175Z,100072.88
2022-08-05T12:36:50.965Z,100072.66
2022-08-05T12:39:53.977Z,100066.44
2022-08-05T12:42:55.992Z,100076.53
2022-08-05T12:45:57.934Z,100069.78
2022-08-05T12:49:13.823Z,100065.03
2022-08-05T12:52:23.977Z,100071.97
2022-08-05T12:55:33.040Z,100076.12
2022-08-05T12:58:39.847Z,100072.91
2022-08-05T13:02:07.439Z,100066.31
2022-08-05T13:05:11.189Z,100061.69
2022-08-05T13:08:17.439Z,100052.53
2022-08-05T13:11:46.968Z,100061.47
2022-08-05T13:14:45.478Z,100049.91
2022-08-05T13:18:01.134Z,100048.16
2022-08-05T13:21:03.130Z,100034.41
2022-08-05T13:24:08.942Z,100036.81
2022-08-05T13:27:11.338Z,100020.50
2022-08-05T13:30:33.513Z,100026.13
2022-08-05T13:34:21.306Z,100020.16
2022-08-05T13:37:00.305Z,100017.84
2022-08-05T13:40:13.445Z,100015.88
2022-08-05T13:43:22.045Z,100017.88
2022-08-05T13:47:01.587Z,100007.16
2022-08-05T13:49:46.682Z,100008.66
2022-08-05T13:52:50.729Z,99994.06
2022-08-05T13:55:58.846Z,100019.34
2022-08-05T13:59:05.978Z,100003.19
2022-08-05T14:02:26.398Z,100001.97
2022-08-05T14:05:48.046Z,100002.31
2022-08-05T14:08:50.671Z,99995.00
2022-08-05T14:12:04.137Z,99985.31
2022-08-05T14:16:04.718Z,99989.97
2022-08-05T14:18:38.360Z,99990.88
2022-08-05T14:22:10.056Z,99993.03
2022-08-05T14:25:02.799Z,99987.00
2022-08-05T14:28:15.879Z,99984.91
2022-08-05T14:32:02.979Z,99973.59
2022-08-05T14:34:50.420Z,99970.63
2022-08-05T14:37:55.468Z,99964.59
2022-08-05T14:40:57.553Z,99966.50
2022-08-05T14:44:09.652Z,99972.63
2022-08-05T14:48:04.006Z,99964.53
2022-08-05T14:50:43.352Z,99960.41
2022-08-05T14:53:45.716Z,99966.12
2022-08-05T14:57:09.725Z,99958.31
2022-08-05T15:00:15.739Z,99956.13
2022-08-05T15:03:22.873Z,99955.66
2022-08-05T15:06:27.892Z,99949.53
2022-08-05T15:09:51.737Z,99956.91
2022-08-05T15:13:01.004Z,99941.34
2022-08-05T15:16:06.218Z,99944.62
2022-08-05T15:19:08.579Z,99940.31
2022-08-05T15:22:27.309Z,99939.66
2022-08-05T15:25:52.932Z,99934.47
2022-08-05T15:28:52.154Z,99940.75
2022-08-05T15:31:54.073Z,99925.09
2022-08-05T15:34:56.693Z,99931.78
2022-08-05T15:38:33.704Z,99922.47
2022-08-05T15:41:24.202Z,99922.84
2022-08-05T15:44:27.520Z,99914.97
2022-08-05T15:47:29.715Z,99921.81
2022-08-05T15:50:34.087Z,99913.66
2022-08-05T15:53:50.872Z,99912.88
2022-08-05T15:56:53.450Z,99912.75
2022-08-05T15:59:57.642Z,99906.44
2022-08-05T16:03:00.025Z,99910.44
2022-08-05T16:06:02.345Z,99911.53
2022-08-05T16:09:04.439Z,99909.75
2022-08-05T16:12:06.548Z,99909.81
2022-08-05T16:15:09.481Z,99904.06
2022-08-05T16:18:12.362Z,99911.31
2022-08-05T16:21:16.491Z,99904.06
2022-08-05T16:24:40.503Z,99914.06
2022-08-05T16:27:47.095Z,99916.44
2022-08-05T16:31:02.937Z,99915.94
2022-08-05T16:34:05.707Z,99919.31
2022-08-05T16:38:01.885Z,99916.13
2022-08-05T16:40:33.431Z,99910.13
2022-08-05T16:43:35.418Z,99909.53
2022-08-05T16:46:40.939Z,99906.47
2022-08-05T16:49:43.189Z,99897.16
2022-08-05T16:52:46.011Z,99909.31
2022-08-05T16:55:48.131Z,99902.97
2022-08-05T16:58:50.165Z,99903.84
2022-08-05T17:01:54.275Z,99907.06
2022-08-05T17:04:57.714Z,99904.09
2022-08-05T17:07:59.668Z,99911.22
2022-08-05T17:11:02.286Z,99908.50
2022-08-05T17:14:05.704Z,99909.66
2022-08-05T17:17:14.305Z,99905.88
2022-08-05T17:20:17.153Z,99906.62
2022-08-05T17:24:03.383Z,99915.69
2022-08-05T17:26:41.086Z,99911.34
2022-08-05T17:29:42.963Z,99919.47
2022-08-05T17:32:44.917Z,99918.50
2022-08-05T17:36:08.082Z,99916.41
2022-08-05T17:39:24.182Z,99925.97
2022-08-05T17:42:32.469Z,99922.63
2022-08-05T17:45:38.181Z,99924.81
2022-08-05T17:48:43.237Z,99927.88
2022-08-05T17:51:47.758Z,99920.09
2022-08-05T17:54:52.389Z,99921.00
2022-08-05T17:57:54.515Z,99924.44
2022-08-05T18:00:57.059Z,99922.34
2022-08-05T18:04:04.494Z,99926.91
2022-08-05T18:07:07.929Z,99928.53
2022-08-05T18:10:21.100Z,99920.75
2022-08-05T18:13:23.378Z,99928.91
2022-08-05T18:16:27.715Z,99933.25
2022-08-05T18:19:29.965Z,99926.00
2022-08-05T18:22:45.913Z,99925.41
2022-08-05T18:25:57.769Z,99919.00
2022-08-05T18:29:01.418Z,99930.22
2022-08-05T18:32:03.330Z,99928.09
2022-08-05T18:35:05.623Z,99934.50
2022-08-05T18:38:08.013Z,99937.00
2022-08-05T18:41:56.462Z,99942.72
2022-08-05T18:44:35.424Z,99942.53
2022-08-05T18:47:56.788Z,99946.16
2022-08-05T18:52:05.827Z,99950.63
2022-08-05T18:54:41.407Z,99948.31
2022-08-05T18:57:52.625Z,99947.13
2022-08-05T19:00:55.432Z,99948.84
2022-08-05T19:03:57.322Z,99951.41
2022-08-05T19:06:59.277Z,99953.22
2022-08-05T19:10:05.274Z,99950.50
2022-08-05T19:13:15.738Z,99945.88
2022-08-05T19:16:25.046Z,99950.88
2022-08-05T19:19:30.669Z,99955.00
2022-08-05T19:22:32.788Z,99953.13
2022-08-05T19:25:42.036Z,99956.78
2022-08-05T19:28:45.657Z,99956.37
2022-08-05T19:31:50.813Z,99967.78
2022-08-05T19:34:54.693Z,99949.38
2022-08-05T19:38:06.852Z,99963.06
2022-08-05T19:41:10.576Z,99962.41
2022-08-05T19:44:13.663Z,99968.81
2022-08-05T19:47:16.589Z,99965.44
2022-08-05T19:50:20.042Z,99965.69
2022-08-05T19:54:03.649Z,99966.31
2022-08-05T19:56:44.346Z,99968.59
2022-08-05T20:00:00.993Z,99978.78
2022-08-05T20:03:08.627Z,99974.69
2022-08-05T20:06:15.350Z,99981.78
2022-08-05T20:09:17.962Z,99971.31
2022-08-05T20:12:19.909Z,99971.59
2022-08-05T20:15:48.757Z,99974.56
2022-08-05T20:18:43.695Z,99969.84
2022-08-05T20:21:46.891Z,99974.88
2022-08-05T20:24:48.749Z,99972.19
2022-08-05T20:27:50.933Z,99983.19
2022-08-05T20:30:52.948Z,99990.97
2022-08-05T20:33:54.822Z,99982.06
2022-08-05T20:36:57.657Z,99999.31
2022-08-05T20:39:59.605Z,100003.47
2022-08-05T20:43:04.111Z,100000.94
2022-08-05T20:46:06.856Z,100003.31
2022-08-05T20:49:08.721Z,100001.62
2022-08-05T20:52:12.323Z,100004.16
2022-08-05T20:55:55.713Z,99999.53
2022-08-05T20:58:36.946Z,100003.28
2022-08-05T21:01:39.206Z,100007.50
2022-08-05T21:04:41.312Z,100007.09
2022-08-05T21:07:51.991Z,100013.03
2022-08-05T21:10:54.182Z,100011.75
2022-08-05T21:14:00.288Z,100012.28
2022-08-05T21:17:05.873Z,100009.53
2022-08-05T21:20:10.194Z,100014.34
2022-08-05T21:23:12.917Z,100008.78
2022-08-05T21:26:16.006Z,100013.19
2022-08-05T21:29:18.069Z,100019.87
2022-08-05T21:32:20.376Z,100017.66
2022-08-05T21:35:29.730Z,100016.66
2022-08-05T21:38:32.087Z,100019.09
2022-08-05T21:41:35.650Z,100015.00
2022-08-05T21:44:37.707Z,100027.16
2022-08-05T21:47:57.164Z,100016.50
2022-08-05T21:50:59.951Z,100024.66
2022-08-05T21:54:03.854Z,100011.28
2022-08-05T21:57:29.512Z,100023.37
2022-08-05T22:00:27.899Z,100020.75
2022-08-05T22:03:48.686Z,100029.72
2022-08-05T22:06:51.859Z,100032.56
2022-08-05T22:09:54.132Z,100035.41
2022-08-05T22:13:58.822Z,100037.78
2022-08-05T22:16:42.165Z,100034.88
2022-08-05T22:20:01.418Z,100029.72
2022-08-05T22:23:23.322Z,100033.31
2022-08-05T22:26:49.746Z,100036.25
2022-08-05T22:29:54.279Z,100036.34
2022-08-05T22:32:56.265Z,100034.72
2022-08-05T22:36:00.002Z,100036.63
2022-08-05T22:39:04.296Z,100039.69
2022-08-05T22:42:15.375Z,100032.31
2022-08-05T22:45:27.155Z,100032.97
2022-08-05T22:48:32.718Z,100040.87
2022-08-05T22:52:06.060Z,100027.50
2022-08-05T22:54:56.509Z,100030.06
2022-08-05T22:57:58.339Z,100034.75
2022-08-05T23:01:00.459Z,100038.28
2022-08-05T23:04:02.384Z,100032.03
2022-08-05T23:07:04.314Z,100034.31
2022-08-05T23:10:09.082Z,100030.19
2022-08-05T23:13:11.068Z,100039.06
2022-08-05T23:16:12.911Z,100040.44
2022-08-05T23:19:27.960Z,100030.16
2022-08-05T23:22:30.844Z,100037.75
2022-08-05T23:25:53.303Z,100039.81
2022-08-05T23:28:55.019Z,100027.53
2022-08-05T23:31:56.865Z,100023.06
2022-08-05T23:34:59.083Z,100019.38
2022-08-05T23:38:01.082Z,100030.09
2022-08-05T23:41:02.943Z,100011.62
2022-08-05T23:44:08.802Z,100019.94
2022-08-05T23:47:15.219Z,100026.53
2022-08-05T23:50:20.192Z,100028.81
2022-08-05T23:53:23.226Z,100022.03
2022-08-05T23:56:30.182Z,100026.03
